首页
METAR-TAF:

METAR-TAF

机场 :

喬爾盧, 土耳其

纬度: 41-08N, 经度: 027-55E, 海拔: 173米

当前天气观测

该预报发布于35分钟前的12:50 UTC
风速13节,风向北转东北
温度 4°C
湿度 87%
气压 1023 hPa
能見度: 4000
多云层高于2500英尺
小阵雨

METAR: LTBU 191250Z 03013KT 4000 -SHRA BKN025 04/02 Q1023 RMK RWY22 01010KT 360V060

时间: 16:25 (13:25 UTC)

预报

该预报发布于2小时和45分钟前的10:40 UTC
预报有效从19日的 12点(UTC)到 20日的 12点(UTC)
风速8节,风向
能见度10公里或以上
多云层高于3500英尺
短暂存在
从 19日的 12点(UTC)到 19日的 16点(UTC)
散云层高于1500英尺
多云层高于2500英尺
小雨
短暂存在
从 19日的 18点(UTC)到 19日的 22点(UTC)
散云层高于1500英尺
多云层高于2500英尺
小雨
成为
从 19日的 22点(UTC)到 20日的 01点(UTC)
风速17节,风向北转西北,有时为28节阵风
短暂存在
从 20日的 02点(UTC)到 20日的 06点(UTC)
能見度: 3200
雨, 轻雾

TAF: LTBU 191040Z 1912/2012 35008KT 9999 BKN035 TEMPO 1912/1916 -RA SCT015 BKN025 TEMPO 1918/1922 -RA SCT015 BKN025 BECMG 1922/2001 34017G28KT TEMPO 2002/2006 3200 RA BR

超过4000个机场的气象观测和天气预报(METAR&TAF报告)。

可查询的气象台以黄色和红色小点在地图上表示。

将鼠标移到小点上方,可查看气象台名称。

然后点击查看天气观测和预报。

如需切换地图:点击带黑十字的绿色按钮放大地图;点击带横线的绿色按钮缩小地图;或者点击绿色箭头查看邻近地区的地图。


METAR-TAF: